sensor_id;sensor_type;location;lat;lon;timestamp;P1;durP1;ratioP1;P2;durP2;ratioP2
41966;SDS011;27656;53.068;8.818;2023-06-26T00:00:21;10.27;;;8.70;;
41966;SDS011;27656;53.068;8.818;2023-06-26T00:02:47;12.10;;;8.67;;
41966;SDS011;27656;53.068;8.818;2023-06-26T00:05:14;10.97;;;8.03;;
41966;SDS011;27656;53.068;8.818;2023-06-26T00:07:41;9.83;;;8.40;;
41966;SDS011;27656;53.068;8.818;2023-06-26T00:10:07;11.70;;;8.57;;
41966;SDS011;27656;53.068;8.818;2023-06-26T00:12:34;9.50;;;8.40;;
41966;SDS011;27656;53.068;8.818;2023-06-26T00:15:02;10.47;;;8.73;;
41966;SDS011;27656;53.068;8.818;2023-06-26T00:17:28;9.70;;;8.10;;
41966;SDS011;27656;53.068;8.818;2023-06-26T00:19:55;11.73;;;8.77;;
41966;SDS011;27656;53.068;8.818;2023-06-26T00:22:21;13.40;;;8.90;;
41966;SDS011;27656;53.068;8.818;2023-06-26T00:24:48;10.63;;;8.87;;
41966;SDS011;27656;53.068;8.818;2023-06-26T00:27:14;11.60;;;8.77;;
41966;SDS011;27656;53.068;8.818;2023-06-26T00:29:41;10.53;;;8.77;;
41966;SDS011;27656;53.068;8.818;2023-06-26T00:32:07;9.80;;;8.80;;
41966;SDS011;27656;53.068;8.818;2023-06-26T00:34:34;11.47;;;9.33;;
41966;SDS011;27656;53.068;8.818;2023-06-26T00:37:01;10.07;;;8.93;;
41966;SDS011;27656;53.068;8.818;2023-06-26T00:39:27;16.87;;;8.53;;
41966;SDS011;27656;53.068;8.818;2023-06-26T00:41:54;11.63;;;9.60;;
41966;SDS011;27656;53.068;8.818;2023-06-26T00:44:20;10.00;;;8.97;;
41966;SDS011;27656;53.068;8.818;2023-06-26T00:46:47;11.03;;;9.67;;
41966;SDS011;27656;53.068;8.818;2023-06-26T00:49:13;10.80;;;9.07;;
41966;SDS011;27656;53.068;8.818;2023-06-26T00:51:40;10.53;;;8.80;;
41966;SDS011;27656;53.068;8.818;2023-06-26T00:54:07;11.30;;;9.80;;
41966;SDS011;27656;53.068;8.818;2023-06-26T00:56:34;10.90;;;9.80;;
41966;SDS011;27656;53.068;8.818;2023-06-26T00:59:00;14.77;;;10.00;;
41966;SDS011;27656;53.068;8.818;2023-06-26T01:01:27;11.93;;;10.10;;
41966;SDS011;27656;53.068;8.818;2023-06-26T01:03:53;11.33;;;9.17;;
41966;SDS011;27656;53.068;8.818;2023-06-26T01:06:21;13.60;;;10.10;;
41966;SDS011;27656;53.068;8.818;2023-06-26T01:08:49;11.03;;;9.33;;
41966;SDS011;27656;53.068;8.818;2023-06-26T01:11:16;10.80;;;9.70;;
41966;SDS011;27656;53.068;8.818;2023-06-26T01:13:44;10.67;;;9.43;;
41966;SDS011;27656;53.068;8.818;2023-06-26T01:16:11;11.63;;;9.77;;
41966;SDS011;27656;53.068;8.818;2023-06-26T01:18:38;10.37;;;9.20;;
41966;SDS011;27656;53.068;8.818;2023-06-26T01:21:08;11.13;;;9.57;;
41966;SDS011;27656;53.068;8.818;2023-06-26T01:23:42;12.23;;;10.10;;
41966;SDS011;27656;53.068;8.818;2023-06-26T01:26:19;11.10;;;9.57;;
41966;SDS011;27656;53.068;8.818;2023-06-26T01:28:46;11.30;;;9.47;;
41966;SDS011;27656;53.068;8.818;2023-06-26T01:31:13;12.10;;;10.37;;
41966;SDS011;27656;53.068;8.818;2023-06-26T01:33:40;11.73;;;9.83;;
41966;SDS011;27656;53.068;8.818;2023-06-26T01:36:07;12.17;;;9.83;;
41966;SDS011;27656;53.068;8.818;2023-06-26T01:38:33;11.97;;;9.77;;
41966;SDS011;27656;53.068;8.818;2023-06-26T01:41:03;11.30;;;10.03;;
41966;SDS011;27656;53.068;8.818;2023-06-26T01:43:42;13.67;;;11.20;;
41966;SDS011;27656;53.068;8.818;2023-06-26T01:46:36;12.03;;;10.70;;
41966;SDS011;27656;53.068;8.818;2023-06-26T01:49:08;12.07;;;9.53;;
41966;SDS011;27656;53.068;8.818;2023-06-26T01:51:42;12.03;;;10.00;;
41966;SDS011;27656;53.068;8.818;2023-06-26T01:54:15;12.80;;;9.60;;
41966;SDS011;27656;53.068;8.818;2023-06-26T01:56:48;12.03;;;10.57;;
41966;SDS011;27656;53.068;8.818;2023-06-26T01:59:15;13.43;;;9.97;;
41966;SDS011;27656;53.068;8.818;2023-06-26T02:01:44;13.00;;;11.17;;
41966;SDS011;27656;53.068;8.818;2023-06-26T02:04:11;12.27;;;10.37;;
41966;SDS011;27656;53.068;8.818;2023-06-26T02:06:37;15.33;;;10.57;;
41966;SDS011;27656;53.068;8.818;2023-06-26T02:09:04;12.43;;;10.20;;
41966;SDS011;27656;53.068;8.818;2023-06-26T02:11:30;12.37;;;9.63;;
41966;SDS011;27656;53.068;8.818;2023-06-26T02:13:56;13.13;;;10.33;;
41966;SDS011;27656;53.068;8.818;2023-06-26T02:16:23;13.80;;;9.57;;
41966;SDS011;27656;53.068;8.818;2023-06-26T02:18:50;13.27;;;10.63;;
41966;SDS011;27656;53.068;8.818;2023-06-26T02:21:16;12.10;;;9.57;;
41966;SDS011;27656;53.068;8.818;2023-06-26T02:23:43;12.67;;;10.70;;
41966;SDS011;27656;53.068;8.818;2023-06-26T02:26:10;12.07;;;10.60;;
41966;SDS011;27656;53.068;8.818;2023-06-26T02:28:37;12.63;;;10.07;;
41966;SDS011;27656;53.068;8.818;2023-06-26T02:31:03;14.73;;;11.13;;
41966;SDS011;27656;53.068;8.818;2023-06-26T02:33:30;13.70;;;11.17;;
41966;SDS011;27656;53.068;8.818;2023-06-26T02:35:58;11.40;;;10.17;;
41966;SDS011;27656;53.068;8.818;2023-06-26T02:38:25;13.00;;;11.10;;
41966;SDS011;27656;53.068;8.818;2023-06-26T02:40:51;11.60;;;10.40;;
41966;SDS011;27656;53.068;8.818;2023-06-26T02:43:18;16.97;;;12.30;;
41966;SDS011;27656;53.068;8.818;2023-06-26T02:45:44;12.87;;;10.87;;
41966;SDS011;27656;53.068;8.818;2023-06-26T02:48:11;13.27;;;10.13;;
41966;SDS011;27656;53.068;8.818;2023-06-26T02:50:37;13.27;;;10.53;;
41966;SDS011;27656;53.068;8.818;2023-06-26T02:53:04;12.03;;;10.70;;
41966;SDS011;27656;53.068;8.818;2023-06-26T02:55:31;13.60;;;11.70;;
41966;SDS011;27656;53.068;8.818;2023-06-26T02:57:57;12.77;;;9.67;;
41966;SDS011;27656;53.068;8.818;2023-06-26T03:00:24;15.73;;;11.17;;
41966;SDS011;27656;53.068;8.818;2023-06-26T03:02:50;15.13;;;11.20;;
41966;SDS011;27656;53.068;8.818;2023-06-26T03:05:16;13.60;;;10.90;;
41966;SDS011;27656;53.068;8.818;2023-06-26T03:07:43;12.27;;;10.90;;
41966;SDS011;27656;53.068;8.818;2023-06-26T03:10:09;12.83;;;10.40;;
41966;SDS011;27656;53.068;8.818;2023-06-26T03:12:36;12.93;;;11.03;;
41966;SDS011;27656;53.068;8.818;2023-06-26T03:15:02;13.07;;;10.93;;
41966;SDS011;27656;53.068;8.818;2023-06-26T03:17:29;14.30;;;10.80;;
41966;SDS011;27656;53.068;8.818;2023-06-26T03:19:55;15.90;;;11.40;;
41966;SDS011;27656;53.068;8.818;2023-06-26T03:22:22;14.60;;;10.73;;
41966;SDS011;27656;53.068;8.818;2023-06-26T03:24:48;12.87;;;10.40;;
41966;SDS011;27656;53.068;8.818;2023-06-26T03:27:15;13.83;;;10.77;;
41966;SDS011;27656;53.068;8.818;2023-06-26T03:29:44;12.90;;;10.53;;
41966;SDS011;27656;53.068;8.818;2023-06-26T03:32:11;12.87;;;10.63;;
41966;SDS011;27656;53.068;8.818;2023-06-26T03:34:37;13.37;;;10.63;;
41966;SDS011;27656;53.068;8.818;2023-06-26T03:37:04;11.70;;;10.40;;
41966;SDS011;27656;53.068;8.818;2023-06-26T03:39:30;11.47;;;10.07;;
41966;SDS011;27656;53.068;8.818;2023-06-26T03:41:57;12.70;;;9.83;;
41966;SDS011;27656;53.068;8.818;2023-06-26T03:44:27;14.70;;;10.03;;
41966;SDS011;27656;53.068;8.818;2023-06-26T03:46:53;12.80;;;9.90;;
41966;SDS011;27656;53.068;8.818;2023-06-26T03:49:20;11.17;;;9.17;;
41966;SDS011;27656;53.068;8.818;2023-06-26T03:51:46;12.13;;;8.43;;
41966;SDS011;27656;53.068;8.818;2023-06-26T03:54:13;10.47;;;8.43;;
41966;SDS011;27656;53.068;8.818;2023-06-26T03:56:39;9.67;;;8.67;;
41966;SDS011;27656;53.068;8.818;2023-06-26T03:59:06;10.47;;;8.80;;
41966;SDS011;27656;53.068;8.818;2023-06-26T04:01:32;11.52;;;8.68;;
41966;SDS011;27656;53.068;8.818;2023-06-26T04:04:00;9.70;;;8.10;;
41966;SDS011;27656;53.068;8.818;2023-06-26T04:06:26;12.93;;;8.20;;
41966;SDS011;27656;53.068;8.818;2023-06-26T04:08:53;11.55;;;8.25;;
41966;SDS011;27656;53.068;8.818;2023-06-26T04:11:19;10.57;;;8.10;;
41966;SDS011;27656;53.068;8.818;2023-06-26T04:13:46;11.70;;;8.07;;
41966;SDS011;27656;53.068;8.818;2023-06-26T04:16:12;9.70;;;8.35;;
41966;SDS011;27656;53.068;8.818;2023-06-26T04:18:39;9.38;;;7.88;;
41966;SDS011;27656;53.068;8.818;2023-06-26T04:21:09;9.52;;;8.10;;
41966;SDS011;27656;53.068;8.818;2023-06-26T04:23:38;9.07;;;8.18;;
41966;SDS011;27656;53.068;8.818;2023-06-26T04:26:06;13.13;;;8.20;;
41966;SDS011;27656;53.068;8.818;2023-06-26T04:28:33;16.80;;;8.13;;
41966;SDS011;27656;53.068;8.818;2023-06-26T04:31:00;10.95;;;7.57;;
41966;SDS011;27656;53.068;8.818;2023-06-26T04:33:27;9.70;;;7.97;;
41966;SDS011;27656;53.068;8.818;2023-06-26T04:35:53;10.25;;;7.65;;
41966;SDS011;27656;53.068;8.818;2023-06-26T04:38:20;12.27;;;7.93;;
41966;SDS011;27656;53.068;8.818;2023-06-26T04:40:48;12.20;;;8.30;;
41966;SDS011;27656;53.068;8.818;2023-06-26T04:43:14;15.10;;;8.57;;
41966;SDS011;27656;53.068;8.818;2023-06-26T04:45:41;10.82;;;7.75;;
41966;SDS011;27656;53.068;8.818;2023-06-26T04:48:08;9.40;;;7.53;;
41966;SDS011;27656;53.068;8.818;2023-06-26T04:50:35;11.27;;;8.05;;
41966;SDS011;27656;53.068;8.818;2023-06-26T04:53:02;10.23;;;7.40;;
41966;SDS011;27656;53.068;8.818;2023-06-26T04:55:28;10.05;;;7.72;;
41966;SDS011;27656;53.068;8.818;2023-06-26T04:57:55;11.80;;;7.53;;
41966;SDS011;27656;53.068;8.818;2023-06-26T05:00:22;9.75;;;7.60;;
41966;SDS011;27656;53.068;8.818;2023-06-26T05:02:48;10.55;;;8.45;;
41966;SDS011;27656;53.068;8.818;2023-06-26T05:05:15;9.05;;;8.05;;
41966;SDS011;27656;53.068;8.818;2023-06-26T05:07:41;9.68;;;7.65;;
41966;SDS011;27656;53.068;8.818;2023-06-26T05:10:08;10.55;;;6.97;;
41966;SDS011;27656;53.068;8.818;2023-06-26T05:12:35;10.70;;;8.23;;
41966;SDS011;27656;53.068;8.818;2023-06-26T05:15:01;9.15;;;7.90;;
41966;SDS011;27656;53.068;8.818;2023-06-26T05:17:29;9.75;;;7.10;;
41966;SDS011;27656;53.068;8.818;2023-06-26T05:19:55;11.98;;;7.15;;
41966;SDS011;27656;53.068;8.818;2023-06-26T05:22:22;10.75;;;7.75;;
41966;SDS011;27656;53.068;8.818;2023-06-26T05:24:49;10.02;;;7.70;;
41966;SDS011;27656;53.068;8.818;2023-06-26T05:27:16;9.80;;;7.72;;
41966;SDS011;27656;53.068;8.818;2023-06-26T05:29:48;9.57;;;7.85;;
41966;SDS011;27656;53.068;8.818;2023-06-26T05:32:15;10.55;;;7.38;;
41966;SDS011;27656;53.068;8.818;2023-06-26T05:34:45;10.55;;;7.53;;
41966;SDS011;27656;53.068;8.818;2023-06-26T05:37:18;15.15;;;7.45;;
41966;SDS011;27656;53.068;8.818;2023-06-26T05:39:46;9.60;;;7.63;;
41966;SDS011;27656;53.068;8.818;2023-06-26T05:42:13;12.18;;;7.22;;
41966;SDS011;27656;53.068;8.818;2023-06-26T05:44:40;10.98;;;7.85;;
41966;SDS011;27656;53.068;8.818;2023-06-26T05:47:07;9.27;;;7.07;;
41966;SDS011;27656;53.068;8.818;2023-06-26T05:49:34;11.60;;;7.47;;
41966;SDS011;27656;53.068;8.818;2023-06-26T05:52:00;11.13;;;7.60;;
41966;SDS011;27656;53.068;8.818;2023-06-26T05:54:27;11.98;;;7.50;;
41966;SDS011;27656;53.068;8.818;2023-06-26T05:56:56;10.18;;;6.75;;
41966;SDS011;27656;53.068;8.818;2023-06-26T05:59:25;7.10;;;6.40;;
41966;SDS011;27656;53.068;8.818;2023-06-26T06:01:53;10.77;;;6.20;;
41966;SDS011;27656;53.068;8.818;2023-06-26T06:04:19;10.40;;;7.03;;
41966;SDS011;27656;53.068;8.818;2023-06-26T06:06:46;9.43;;;6.95;;
41966;SDS011;27656;53.068;8.818;2023-06-26T06:09:13;10.55;;;6.70;;
41966;SDS011;27656;53.068;8.818;2023-06-26T06:11:39;10.30;;;6.78;;
41966;SDS011;27656;53.068;8.818;2023-06-26T06:14:06;9.35;;;6.80;;
41966;SDS011;27656;53.068;8.818;2023-06-26T06:16:32;7.88;;;6.38;;
41966;SDS011;27656;53.068;8.818;2023-06-26T06:18:59;10.15;;;6.68;;
41966;SDS011;27656;53.068;8.818;2023-06-26T06:21:25;8.40;;;6.82;;
41966;SDS011;27656;53.068;8.818;2023-06-26T06:23:52;8.40;;;6.72;;
41966;SDS011;27656;53.068;8.818;2023-06-26T06:26:19;8.68;;;6.78;;
41966;SDS011;27656;53.068;8.818;2023-06-26T06:28:45;10.50;;;7.10;;
41966;SDS011;27656;53.068;8.818;2023-06-26T06:31:12;11.13;;;6.82;;
41966;SDS011;27656;53.068;8.818;2023-06-26T06:33:38;11.57;;;6.25;;
41966;SDS011;27656;53.068;8.818;2023-06-26T06:36:05;10.70;;;7.57;;
41966;SDS011;27656;53.068;8.818;2023-06-26T06:38:31;8.25;;;6.93;;
41966;SDS011;27656;53.068;8.818;2023-06-26T06:40:58;8.40;;;6.65;;
41966;SDS011;27656;53.068;8.818;2023-06-26T06:43:24;9.60;;;7.20;;
41966;SDS011;27656;53.068;8.818;2023-06-26T06:45:51;11.02;;;7.25;;
41966;SDS011;27656;53.068;8.818;2023-06-26T06:48:17;9.32;;;7.43;;
41966;SDS011;27656;53.068;8.818;2023-06-26T06:50:44;10.98;;;7.32;;
41966;SDS011;27656;53.068;8.818;2023-06-26T06:53:10;11.98;;;6.68;;
41966;SDS011;27656;53.068;8.818;2023-06-26T06:55:37;8.88;;;7.68;;
41966;SDS011;27656;53.068;8.818;2023-06-26T06:58:03;10.73;;;7.30;;
41966;SDS011;27656;53.068;8.818;2023-06-26T07:00:31;9.32;;;6.78;;
41966;SDS011;27656;53.068;8.818;2023-06-26T07:02:58;12.02;;;8.15;;
41966;SDS011;27656;53.068;8.818;2023-06-26T07:05:26;8.38;;;7.18;;
41966;SDS011;27656;53.068;8.818;2023-06-26T07:07:53;12.65;;;8.70;;
41966;SDS011;27656;53.068;8.818;2023-06-26T07:10:19;10.48;;;7.78;;
41966;SDS011;27656;53.068;8.818;2023-06-26T07:12:46;9.57;;;8.32;;
41966;SDS011;27656;53.068;8.818;2023-06-26T07:15:13;11.20;;;8.27;;
41966;SDS011;27656;53.068;8.818;2023-06-26T07:17:39;10.23;;;8.45;;
41966;SDS011;27656;53.068;8.818;2023-06-26T07:20:06;12.95;;;8.55;;
41966;SDS011;27656;53.068;8.818;2023-06-26T07:22:35;11.48;;;9.18;;
41966;SDS011;27656;53.068;8.818;2023-06-26T07:25:02;13.50;;;9.75;;
41966;SDS011;27656;53.068;8.818;2023-06-26T07:27:30;13.23;;;8.95;;
41966;SDS011;27656;53.068;8.818;2023-06-26T07:29:57;13.77;;;9.55;;
41966;SDS011;27656;53.068;8.818;2023-06-26T07:32:23;13.10;;;8.75;;
41966;SDS011;27656;53.068;8.818;2023-06-26T07:34:49;12.10;;;8.82;;
41966;SDS011;27656;53.068;8.818;2023-06-26T07:37:16;12.23;;;8.82;;
41966;SDS011;27656;53.068;8.818;2023-06-26T07:39:42;9.70;;;8.13;;
41966;SDS011;27656;53.068;8.818;2023-06-26T07:42:09;11.40;;;7.60;;
41966;SDS011;27656;53.068;8.818;2023-06-26T07:44:36;9.80;;;8.18;;
41966;SDS011;27656;53.068;8.818;2023-06-26T07:47:02;11.07;;;7.40;;
41966;SDS011;27656;53.068;8.818;2023-06-26T07:49:29;10.60;;;8.20;;
41966;SDS011;27656;53.068;8.818;2023-06-26T07:51:56;12.00;;;8.13;;
41966;SDS011;27656;53.068;8.818;2023-06-26T07:54:22;11.68;;;7.80;;
41966;SDS011;27656;53.068;8.818;2023-06-26T07:56:59;12.80;;;8.05;;
41966;SDS011;27656;53.068;8.818;2023-06-26T07:59:27;10.95;;;7.20;;
41966;SDS011;27656;53.068;8.818;2023-06-26T08:01:56;11.57;;;7.65;;
41966;SDS011;27656;53.068;8.818;2023-06-26T08:04:24;13.85;;;9.15;;
41966;SDS011;27656;53.068;8.818;2023-06-26T08:06:55;14.32;;;8.55;;
41966;SDS011;27656;53.068;8.818;2023-06-26T08:09:23;17.35;;;10.05;;
41966;SDS011;27656;53.068;8.818;2023-06-26T08:11:51;15.27;;;10.45;;
41966;SDS011;27656;53.068;8.818;2023-06-26T08:14:18;15.15;;;10.88;;
41966;SDS011;27656;53.068;8.818;2023-06-26T08:16:44;17.45;;;9.95;;
41966;SDS011;27656;53.068;8.818;2023-06-26T08:19:12;11.25;;;9.80;;
41966;SDS011;27656;53.068;8.818;2023-06-26T08:21:39;13.80;;;9.45;;
41966;SDS011;27656;53.068;8.818;2023-06-26T08:24:06;16.38;;;9.55;;
41966;SDS011;27656;53.068;8.818;2023-06-26T08:26:34;13.65;;;8.32;;
41966;SDS011;27656;53.068;8.818;2023-06-26T08:29:01;13.88;;;8.30;;
41966;SDS011;27656;53.068;8.818;2023-06-26T08:31:37;12.00;;;7.35;;
41966;SDS011;27656;53.068;8.818;2023-06-26T08:34:05;9.98;;;6.65;;
41966;SDS011;27656;53.068;8.818;2023-06-26T08:36:31;9.25;;;6.88;;
41966;SDS011;27656;53.068;8.818;2023-06-26T08:38:58;10.80;;;7.20;;
41966;SDS011;27656;53.068;8.818;2023-06-26T08:41:24;17.02;;;7.53;;
41966;SDS011;27656;53.068;8.818;2023-06-26T08:43:51;11.65;;;7.75;;
41966;SDS011;27656;53.068;8.818;2023-06-26T08:46:19;17.98;;;8.48;;
41966;SDS011;27656;53.068;8.818;2023-06-26T08:48:52;15.47;;;7.43;;
41966;SDS011;27656;53.068;8.818;2023-06-26T08:51:23;11.57;;;8.07;;
41966;SDS011;27656;53.068;8.818;2023-06-26T08:53:58;14.60;;;8.50;;
41966;SDS011;27656;53.068;8.818;2023-06-26T08:56:27;11.50;;;8.20;;
41966;SDS011;27656;53.068;8.818;2023-06-26T08:58:58;13.67;;;8.60;;
41966;SDS011;27656;53.068;8.818;2023-06-26T09:01:25;20.23;;;11.53;;
41966;SDS011;27656;53.068;8.818;2023-06-26T09:03:52;31.63;;;22.67;;
41966;SDS011;27656;53.068;8.818;2023-06-26T09:06:18;19.87;;;13.40;;
41966;SDS011;27656;53.068;8.818;2023-06-26T09:08:45;13.83;;;10.40;;
41966;SDS011;27656;53.068;8.818;2023-06-26T09:11:12;17.27;;;10.67;;
41966;SDS011;27656;53.068;8.818;2023-06-26T09:13:39;16.97;;;10.90;;
41966;SDS011;27656;53.068;8.818;2023-06-26T09:16:06;18.23;;;11.57;;
41966;SDS011;27656;53.068;8.818;2023-06-26T09:18:34;18.53;;;11.40;;
41966;SDS011;27656;53.068;8.818;2023-06-26T09:21:05;16.20;;;12.17;;
41966;SDS011;27656;53.068;8.818;2023-06-26T09:23:33;18.42;;;11.52;;
41966;SDS011;27656;53.068;8.818;2023-06-26T09:26:01;21.67;;;11.97;;
41966;SDS011;27656;53.068;8.818;2023-06-26T09:28:29;20.17;;;11.73;;
41966;SDS011;27656;53.068;8.818;2023-06-26T09:31:00;18.38;;;10.88;;
41966;SDS011;27656;53.068;8.818;2023-06-26T09:33:32;12.68;;;7.10;;
41966;SDS011;27656;53.068;8.818;2023-06-26T09:36:00;15.18;;;8.07;;
41966;SDS011;27656;53.068;8.818;2023-06-26T09:38:27;12.93;;;6.85;;
41966;SDS011;27656;53.068;8.818;2023-06-26T09:40:54;11.93;;;6.40;;
41966;SDS011;27656;53.068;8.818;2023-06-26T09:43:20;10.48;;;6.10;;
41966;SDS011;27656;53.068;8.818;2023-06-26T09:45:47;12.82;;;6.13;;
41966;SDS011;27656;53.068;8.818;2023-06-26T09:48:14;10.25;;;5.10;;
41966;SDS011;27656;53.068;8.818;2023-06-26T09:50:41;9.35;;;4.75;;
41966;SDS011;27656;53.068;8.818;2023-06-26T09:53:26;8.70;;;5.03;;
41966;SDS011;27656;53.068;8.818;2023-06-26T09:55:53;11.55;;;4.47;;
41966;SDS011;27656;53.068;8.818;2023-06-26T09:58:19;7.88;;;3.60;;
41966;SDS011;27656;53.068;8.818;2023-06-26T10:00:46;10.43;;;3.80;;
41966;SDS011;27656;53.068;8.818;2023-06-26T10:03:13;9.75;;;3.33;;
41966;SDS011;27656;53.068;8.818;2023-06-26T10:05:40;6.70;;;3.38;;
41966;SDS011;27656;53.068;8.818;2023-06-26T10:08:06;8.75;;;3.00;;
41966;SDS011;27656;53.068;8.818;2023-06-26T10:10:34;6.95;;;2.97;;
41966;SDS011;27656;53.068;8.818;2023-06-26T10:13:08;7.68;;;3.40;;
41966;SDS011;27656;53.068;8.818;2023-06-26T10:15:44;10.52;;;3.38;;
41966;SDS011;27656;53.068;8.818;2023-06-26T10:18:12;6.93;;;3.13;;
41966;SDS011;27656;53.068;8.818;2023-06-26T10:20:39;6.88;;;2.67;;
41966;SDS011;27656;53.068;8.818;2023-06-26T10:23:07;9.50;;;3.17;;
41966;SDS011;27656;53.068;8.818;2023-06-26T10:25:34;7.72;;;2.85;;
41966;SDS011;27656;53.068;8.818;2023-06-26T10:28:03;8.48;;;2.65;;
41966;SDS011;27656;53.068;8.818;2023-06-26T10:30:31;9.75;;;2.47;;
41966;SDS011;27656;53.068;8.818;2023-06-26T10:33:00;6.25;;;1.90;;
41966;SDS011;27656;53.068;8.818;2023-06-26T10:35:27;6.47;;;2.20;;
41966;SDS011;27656;53.068;8.818;2023-06-26T10:37:59;6.97;;;2.13;;
41966;SDS011;27656;53.068;8.818;2023-06-26T10:40:39;6.63;;;2.00;;
41966;SDS011;27656;53.068;8.818;2023-06-26T10:43:07;5.80;;;2.28;;
41966;SDS011;27656;53.068;8.818;2023-06-26T10:45:34;7.80;;;2.47;;
41966;SDS011;27656;53.068;8.818;2023-06-26T10:48:02;7.07;;;2.22;;
41966;SDS011;27656;53.068;8.818;2023-06-26T10:50:29;7.22;;;2.15;;
41966;SDS011;27656;53.068;8.818;2023-06-26T10:53:07;6.15;;;2.10;;
41966;SDS011;27656;53.068;8.818;2023-06-26T10:55:33;5.47;;;1.80;;
41966;SDS011;27656;53.068;8.818;2023-06-26T10:58:00;8.40;;;2.03;;
41966;SDS011;27656;53.068;8.818;2023-06-26T11:00:28;9.63;;;2.10;;
41966;SDS011;27656;53.068;8.818;2023-06-26T11:02:55;12.57;;;3.00;;
41966;SDS011;27656;53.068;8.818;2023-06-26T11:05:32;5.75;;;1.80;;
41966;SDS011;27656;53.068;8.818;2023-06-26T11:08:03;7.85;;;1.90;;
41966;SDS011;27656;53.068;8.818;2023-06-26T11:13:20;5.47;;;1.75;;
41966;SDS011;27656;53.068;8.818;2023-06-26T11:15:47;5.28;;;1.80;;
41966;SDS011;27656;53.068;8.818;2023-06-26T11:18:15;7.93;;;1.70;;
41966;SDS011;27656;53.068;8.818;2023-06-26T11:20:42;4.63;;;1.60;;
41966;SDS011;27656;53.068;8.818;2023-06-26T11:23:08;8.95;;;1.98;;
41966;SDS011;27656;53.068;8.818;2023-06-26T11:25:38;3.97;;;1.70;;
41966;SDS011;27656;53.068;8.818;2023-06-26T11:28:05;10.03;;;1.77;;
41966;SDS011;27656;53.068;8.818;2023-06-26T11:30:31;7.72;;;1.83;;
41966;SDS011;27656;53.068;8.818;2023-06-26T11:33:06;10.47;;;1.87;;
41966;SDS011;27656;53.068;8.818;2023-06-26T11:35:33;5.00;;;1.90;;
41966;SDS011;27656;53.068;8.818;2023-06-26T11:38:00;6.85;;;1.75;;
41966;SDS011;27656;53.068;8.818;2023-06-26T11:40:34;4.43;;;1.70;;
41966;SDS011;27656;53.068;8.818;2023-06-26T11:43:03;5.55;;;1.60;;
41966;SDS011;27656;53.068;8.818;2023-06-26T11:45:30;9.97;;;1.70;;
41966;SDS011;27656;53.068;8.818;2023-06-26T11:47:57;4.33;;;2.17;;
41966;SDS011;27656;53.068;8.818;2023-06-26T11:50:24;5.97;;;1.65;;
41966;SDS011;27656;53.068;8.818;2023-06-26T11:52:55;5.30;;;1.70;;
41966;SDS011;27656;53.068;8.818;2023-06-26T11:55:22;4.07;;;1.67;;
41966;SDS011;27656;53.068;8.818;2023-06-26T11:57:50;4.68;;;1.65;;
41966;SDS011;27656;53.068;8.818;2023-06-26T12:00:17;3.40;;;1.50;;
41966;SDS011;27656;53.068;8.818;2023-06-26T12:02:47;6.90;;;1.98;;
41966;SDS011;27656;53.068;8.818;2023-06-26T12:05:14;7.60;;;1.80;;
41966;SDS011;27656;53.068;8.818;2023-06-26T12:07:46;2.92;;;1.35;;
41966;SDS011;27656;53.068;8.818;2023-06-26T12:10:13;6.28;;;1.75;;
41966;SDS011;27656;53.068;8.818;2023-06-26T12:12:40;3.65;;;1.60;;
41966;SDS011;27656;53.068;8.818;2023-06-26T12:15:07;2.78;;;1.40;;
41966;SDS011;27656;53.068;8.818;2023-06-26T12:17:37;5.95;;;1.98;;
41966;SDS011;27656;53.068;8.818;2023-06-26T12:20:06;6.03;;;1.80;;
41966;SDS011;27656;53.068;8.818;2023-06-26T12:22:45;5.40;;;1.83;;
41966;SDS011;27656;53.068;8.818;2023-06-26T12:25:13;4.40;;;1.60;;
41966;SDS011;27656;53.068;8.818;2023-06-26T12:27:40;3.95;;;1.67;;
41966;SDS011;27656;53.068;8.818;2023-06-26T12:30:07;4.07;;;1.70;;
41966;SDS011;27656;53.068;8.818;2023-06-26T12:32:34;4.80;;;1.50;;
41966;SDS011;27656;53.068;8.818;2023-06-26T12:35:01;7.43;;;1.92;;
41966;SDS011;27656;53.068;8.818;2023-06-26T12:37:27;6.53;;;2.00;;
41966;SDS011;27656;53.068;8.818;2023-06-26T12:39:55;5.63;;;2.15;;
41966;SDS011;27656;53.068;8.818;2023-06-26T12:42:23;7.55;;;1.80;;
41966;SDS011;27656;53.068;8.818;2023-06-26T12:44:51;6.53;;;1.75;;
41966;SDS011;27656;53.068;8.818;2023-06-26T12:47:22;2.10;;;1.65;;
41966;SDS011;27656;53.068;8.818;2023-06-26T12:49:51;3.65;;;1.67;;
41966;SDS011;27656;53.068;8.818;2023-06-26T12:52:18;10.38;;;2.53;;
41966;SDS011;27656;53.068;8.818;2023-06-26T12:54:46;7.50;;;1.77;;
41966;SDS011;27656;53.068;8.818;2023-06-26T12:57:17;2.58;;;1.70;;
41966;SDS011;27656;53.068;8.818;2023-06-26T12:59:44;6.30;;;1.98;;
41966;SDS011;27656;53.068;8.818;2023-06-26T13:02:10;3.10;;;1.70;;
41966;SDS011;27656;53.068;8.818;2023-06-26T13:04:37;4.28;;;1.75;;
41966;SDS011;27656;53.068;8.818;2023-06-26T13:07:07;4.10;;;1.80;;
41966;SDS011;27656;53.068;8.818;2023-06-26T13:09:34;4.32;;;1.90;;
41966;SDS011;27656;53.068;8.818;2023-06-26T13:12:01;5.28;;;1.80;;
41966;SDS011;27656;53.068;8.818;2023-06-26T13:14:31;11.25;;;2.05;;
41966;SDS011;27656;53.068;8.818;2023-06-26T13:16:58;5.22;;;2.03;;
41966;SDS011;27656;53.068;8.818;2023-06-26T13:19:24;15.00;;;3.08;;
41966;SDS011;27656;53.068;8.818;2023-06-26T13:21:51;4.30;;;2.10;;
41966;SDS011;27656;53.068;8.818;2023-06-26T13:24:17;3.38;;;1.52;;
41966;SDS011;27656;53.068;8.818;2023-06-26T13:26:44;5.88;;;2.10;;
41966;SDS011;27656;53.068;8.818;2023-06-26T13:29:10;3.50;;;2.00;;
41966;SDS011;27656;53.068;8.818;2023-06-26T13:31:37;6.63;;;2.00;;
41966;SDS011;27656;53.068;8.818;2023-06-26T13:34:04;5.15;;;1.80;;
41966;SDS011;27656;53.068;8.818;2023-06-26T13:36:31;7.07;;;2.28;;
41966;SDS011;27656;53.068;8.818;2023-06-26T13:39:00;7.40;;;2.63;;
41966;SDS011;27656;53.068;8.818;2023-06-26T13:41:26;5.97;;;2.13;;
41966;SDS011;27656;53.068;8.818;2023-06-26T13:43:54;8.20;;;2.25;;
41966;SDS011;27656;53.068;8.818;2023-06-26T13:46:31;9.63;;;2.17;;
41966;SDS011;27656;53.068;8.818;2023-06-26T13:48:57;9.57;;;2.70;;
41966;SDS011;27656;53.068;8.818;2023-06-26T13:51:24;7.78;;;2.40;;
41966;SDS011;27656;53.068;8.818;2023-06-26T13:53:51;4.55;;;2.00;;
41966;SDS011;27656;53.068;8.818;2023-06-26T13:56:17;5.40;;;1.90;;
41966;SDS011;27656;53.068;8.818;2023-06-26T13:58:44;6.32;;;1.98;;
41966;SDS011;27656;53.068;8.818;2023-06-26T14:01:10;6.20;;;2.25;;
41966;SDS011;27656;53.068;8.818;2023-06-26T14:03:37;5.60;;;2.20;;
41966;SDS011;27656;53.068;8.818;2023-06-26T14:06:03;4.20;;;1.90;;
41966;SDS011;27656;53.068;8.818;2023-06-26T14:08:30;5.50;;;2.05;;
41966;SDS011;27656;53.068;8.818;2023-06-26T14:10:56;7.18;;;2.00;;
41966;SDS011;27656;53.068;8.818;2023-06-26T14:13:23;6.50;;;2.30;;
41966;SDS011;27656;53.068;8.818;2023-06-26T14:15:50;6.65;;;2.00;;
41966;SDS011;27656;53.068;8.818;2023-06-26T14:18:19;7.00;;;2.08;;
41966;SDS011;27656;53.068;8.818;2023-06-26T14:20:47;5.07;;;1.90;;
41966;SDS011;27656;53.068;8.818;2023-06-26T14:23:14;4.97;;;1.85;;
41966;SDS011;27656;53.068;8.818;2023-06-26T14:25:40;5.95;;;1.67;;
41966;SDS011;27656;53.068;8.818;2023-06-26T14:28:07;11.18;;;2.38;;
41966;SDS011;27656;53.068;8.818;2023-06-26T14:30:33;10.10;;;2.17;;
41966;SDS011;27656;53.068;8.818;2023-06-26T14:33:00;7.95;;;2.40;;
41966;SDS011;27656;53.068;8.818;2023-06-26T14:35:27;7.03;;;1.98;;
41966;SDS011;27656;53.068;8.818;2023-06-26T14:37:53;5.72;;;2.00;;
41966;SDS011;27656;53.068;8.818;2023-06-26T14:40:20;7.07;;;2.00;;
41966;SDS011;27656;53.068;8.818;2023-06-26T14:42:47;7.45;;;2.03;;